»·PEaware :: N4269T KCPR-KDEN

N4269T :: KCPR-KDEN

FLIGHT INFORMATION

Flight Status: Arrived
Operator: Privately registered:
United States
More flights under this callsign
Pilot: Chuck O. (4337)
Aircraft: Unknown
(B60T)
More flights by this aircraft type
Origin: KCPR Natrona Co Intl
United States
Destination: KDEN Denver Intl
United States
More flights between these airports :: More routes between these airports
Route: +ALCOS6 ALCOS V589 MBW RAMMS6
File this flight plan on PilotEdge
Remarks:
Altitude:
(Current/Filed)
220ft
Speed:
(Current/Filed)
280kts
Departed: 04-May-18 11:43 AM
Arrived: 04-May-18 12:43 PM
Distance/Time
Traveled:
201nm/0:59
Distance/Time
To Go:
Arrived

Flight Plot

Page will automatically refresh every two minutes.

Flight plan parsing failed; only flown route is shown


Map Options




Map Legend


Flown Route
Filed Route
Departure Airport
Arrival Airport
Navaid (VOR, NDB)
Fix

Horizontal Profiles

Position Reports

Time Latitude Longitude Heading Altitude Ground
Speed
04-May-18 11:27 42.897066 -106.465405 179 5350ft 0kts
04-May-18 11:28 42.896978 -106.465635 305 5350ft 4kts
04-May-18 11:29 42.897577 -106.465986 344 5350ft 0kts
04-May-18 11:30 42.897581 -106.465987 343 5350ft 0kts
04-May-18 11:31 42.897584 -106.465989 343 5350ft 0kts
04-May-18 11:32 42.897587 -106.465990 343 5350ft 0kts
04-May-18 11:33 42.897590 -106.465991 343 5350ft 0kts
04-May-18 11:34 42.897592 -106.465992 343 5350ft 0kts
04-May-18 11:35 42.898215 -106.466079 6 5350ft 13kts
04-May-18 11:36 42.902678 -106.460718 44 5350ft 23kts
04-May-18 11:37 42.907188 -106.454643 46 5350ft 20kts
04-May-18 11:38 42.911711 -106.448562 41 5350ft 23kts
04-May-18 11:39 42.912518 -106.448389 305 5350ft 0kts
04-May-18 11:40 42.912519 -106.448390 305 5350ft 0kts
04-May-18 11:41 42.912521 -106.448394 305 5350ft 0kts
04-May-18 11:42 42.912695 -106.448720 306 5350ft 8kts
04-May-18 11:43 42.909312 -106.454175 223 5350ft 90kts
04-May-18 11:44 42.888464 -106.481470 219 7132ft 105kts
04-May-18 11:45 42.863642 -106.508233 238 9048ft 118kts
04-May-18 11:46 42.829625 -106.515138 161 10511ft 169kts
04-May-18 11:47 42.777862 -106.487132 162 11994ft 212kts
04-May-18 11:48 42.722354 -106.457885 162 13701ft 210kts
04-May-18 11:49 42.668208 -106.429475 161 15687ft 208kts
04-May-18 11:50 42.613981 -106.401078 161 17684ft 209kts
04-May-18 11:51 42.559662 -106.372682 161 19677ft 209kts
04-May-18 11:52 42.504708 -106.344026 160 21316ft 226kts
04-May-18 11:53 42.439552 -106.310114 159 21365ft 269kts
04-May-18 11:54 42.366285 -106.271981 159 21368ft 291kts
04-May-18 11:55 42.289421 -106.232152 159 21374ft 296kts
04-May-18 11:56 42.212386 -106.192349 159 21381ft 297kts
04-May-18 11:57 42.135309 -106.152630 159 21388ft 297kts
04-May-18 11:58 42.057900 -106.112845 159 21394ft 297kts
04-May-18 11:59 41.980759 -106.073302 159 21399ft 297kts
04-May-18 12:00 41.903598 -106.033852 159 21402ft 297kts
04-May-18 12:01 41.825462 -105.998373 179 21401ft 294kts
04-May-18 12:02 41.745610 -105.975409 161 21411ft 297kts
04-May-18 12:03 41.667751 -105.937616 161 21416ft 297kts
04-May-18 12:04 41.589960 -105.900658 161 21421ft 296kts
04-May-18 12:05 41.512320 -105.864002 161 21426ft 296kts
04-May-18 12:06 41.434352 -105.827305 161 21429ft 296kts
04-May-18 12:07 41.356632 -105.790821 161 21421ft 296kts
04-May-18 12:08 41.278995 -105.754470 160 21421ft 296kts
04-May-18 12:09 41.200330 -105.717765 161 20887ft 299kts
04-May-18 12:10 41.127263 -105.683864 160 20306ft 263kts
04-May-18 12:11 41.059583 -105.652412 160 19801ft 254kts
04-May-18 12:12 40.993323 -105.621687 160 19302ft 252kts
04-May-18 12:13 40.927310 -105.591138 160 18803ft 250kts
04-May-18 12:14 40.861591 -105.560785 160 18304ft 250kts
04-May-18 12:15 40.795933 -105.530527 160 17803ft 249kts
04-May-18 12:16 40.734536 -105.491185 139 17309ft 246kts
04-May-18 12:17 40.680837 -105.434620 140 16809ft 246kts
04-May-18 12:18 40.627290 -105.379034 140 16312ft 246kts
04-May-18 12:19 40.573674 -105.323072 140 15997ft 240kts
04-May-18 12:20 40.521991 -105.268692 140 15990ft 236kts
04-May-18 12:21 40.470665 -105.215094 140 15980ft 236kts
04-May-18 12:22 40.418034 -105.160555 140 15401ft 253kts
04-May-18 12:23 40.361994 -105.102684 141 13937ft 256kts
04-May-18 12:24 40.306924 -105.045902 141 13004ft 241kts
04-May-18 12:25 40.255829 -104.993361 141 12987ft 229kts
04-May-18 12:26 40.205533 -104.941690 141 12662ft 239kts
04-May-18 12:27 40.151626 -104.886336 142 11419ft 249kts
04-May-18 12:28 40.098777 -104.832310 142 11011ft 230kts
04-May-18 12:29 40.054987 -104.787548 142 11011ft 225kts
04-May-18 12:30 40.006881 -104.738609 142 10501ft 226kts
04-May-18 12:31 39.956313 -104.687141 142 9368ft 231kts
04-May-18 12:32 39.907633 -104.637738 143 9003ft 212kts
04-May-18 12:33 39.849554 -104.614105 168 8062ft 217kts
04-May-18 12:34 39.802559 -104.601795 173 7997ft 180kts
04-May-18 12:35 39.753804 -104.593559 175 8017ft 185kts
04-May-18 12:36 39.701746 -104.584561 174 8022ft 189kts
04-May-18 12:36 39.660092 -104.590944 234 7665ft 189kts
04-May-18 12:37 39.676897 -104.645990 319 7034ft 174kts
04-May-18 12:38 39.707179 -104.663510 359 7009ft 158kts
04-May-18 12:39 39.749729 -104.661520 0 7013ft 142kts
04-May-18 12:40 39.782956 -104.660846 356 6375ft 131kts
04-May-18 12:41 39.820581 -104.660427 357 5615ft 102kts
04-May-18 12:42 39.837358 -104.660881 262 5434ft 11kts
04-May-18 12:43 39.836565 -104.662366 335 5434ft 6kts
04-May-18 12:44 39.839045 -104.662558 1 5434ft 7kts
04-May-18 12:45 39.840082 -104.663413 225 5434ft 8kts
04-May-18 12:46 39.839014 -104.665314 272 5434ft 3kts
04-May-18 12:47 39.839016 -104.665354 273 5434ft 0kts
04-May-18 12:48 39.839016 -104.665354 273 5434ft 0kts

Navigation Log

Ident Type
Flight plan parsing failed, navigation log unavailable